Time;durP1;ratioP1;P1;durP2;ratioP2;P2;SDS_P1;SDS_P2;PMS_P1;PMS_P2;Temp;Humidity;BMP_temperature;BMP_pressure;BME280_temperature;BME280_humidity;BME280_pressure;Samples;Min_cycle;Max_cycle;Signal;HPM_P1;HPM_P2
2022/03/30 00:00:40;;;;;;;4.97;3.22;;;19.90;45.70;;;;;;6194213;28;20421;-69
2022/03/30 00:03:40;;;;;;;8.07;2.92;;;19.90;45.70;;;;;;6194294;28;20027;-69
2022/03/30 00:06:41;;;;;;;4.15;2.65;;;19.90;45.70;;;;;;6194213;28;20061;-69
2022/03/30 00:09:42;;;;;;;3.78;2.55;;;19.90;45.70;;;;;;6194108;28;20093;-68
2022/03/30 00:12:42;;;;;;;5.70;2.60;;;19.90;45.70;;;;;;6192830;28;20429;-69
2022/03/30 00:15:43;;;;;;;5.10;2.72;;;19.90;45.60;;;;;;6194173;28;20370;-68
2022/03/30 00:18:44;;;;;;;3.85;2.50;;;19.90;45.70;;;;;;6193644;28;20038;-69
2022/03/30 00:21:46;;;;;;;4.22;2.42;;;19.90;45.70;;;;;;6194521;28;20031;-68
2022/03/30 00:24:46;;;;;;;3.08;2.10;;;19.90;45.80;;;;;;6193839;28;20026;-69
2022/03/30 00:27:47;;;;;;;4.00;2.40;;;19.90;45.70;;;;;;6193586;28;20556;-69
2022/03/30 00:30:48;;;;;;;3.15;2.13;;;19.90;45.70;;;;;;6193490;28;20641;-69
2022/03/30 00:33:50;;;;;;;3.55;2.33;;;19.90;45.70;;;;;;6193582;28;20030;-69
2022/03/30 00:36:51;;;;;;;3.58;2.45;;;19.90;45.70;;;;;;6193968;28;20022;-69
2022/03/30 00:39:53;;;;;;;3.92;2.30;;;19.90;45.70;;;;;;6193672;28;20049;-69
2022/03/30 00:42:54;;;;;;;3.88;2.20;;;19.90;45.70;;;;;;6193543;28;20022;-68
2022/03/30 00:45:55;;;;;;;4.65;2.40;;;19.90;45.60;;;;;;6193490;28;20037;-69
2022/03/30 00:48:56;;;;;;;3.95;2.42;;;19.80;45.60;;;;;;6193665;28;20086;-68
2022/03/30 00:51:56;;;;;;;3.47;2.03;;;19.90;45.70;;;;;;6194088;28;20370;-69
2022/03/30 00:54:57;;;;;;;5.68;2.40;;;19.90;45.60;;;;;;6193680;28;20142;-68
2022/03/30 00:57:58;;;;;;;3.47;1.88;;;19.90;45.50;;;;;;6193290;28;20488;-70
2022/03/30 01:00:58;;;;;;;4.32;2.40;;;19.90;45.60;;;;;;6193404;28;20038;-68
2022/03/30 01:04:03;;;;;;;2.88;2.03;;;19.90;45.70;;;;;;6193504;28;20030;-69
2022/03/30 01:07:04;;;;;;;3.50;2.22;;;19.90;46.40;;;;;;6193467;28;20501;-69
2022/03/30 01:10:06;;;;;;;4.15;2.00;;;19.90;45.70;;;;;;6197013;28;20057;-69
2022/03/30 01:13:07;;;;;;;3.72;2.13;;;19.90;45.70;;;;;;6197940;28;20034;-69
2022/03/30 01:16:07;;;;;;;2.50;1.60;;;19.90;45.70;;;;;;6198075;28;20049;-69
2022/03/30 01:19:10;;;;;;;3.20;2.00;;;19.90;45.80;;;;;;6197784;28;20157;-68
2022/03/30 01:22:10;;;;;;;4.00;2.15;;;19.90;45.80;;;;;;6197913;28;20034;-68
2022/03/30 01:25:11;;;;;;;2.67;2.05;;;19.80;45.60;;;;;;6197273;28;20377;-69
2022/03/30 01:28:12;;;;;;;3.80;1.77;;;19.90;45.80;;;;;;6197794;28;20053;-69
2022/03/30 01:34:31;;;;;;;3.03;1.70;;;19.80;45.70;;;;;;6197532;28;20485;-68
2022/03/30 01:37:33;;;;;;;2.97;1.85;;;19.80;45.70;;;;;;6197599;28;20089;-69
2022/03/30 01:40:34;;;;;;;2.83;1.77;;;19.90;45.70;;;;;;6197592;28;20041;-68
2022/03/30 01:43:34;;;;;;;2.30;1.77;;;19.90;45.80;;;;;;6196983;28;20026;-69
2022/03/30 01:46:37;;;;;;;2.85;1.80;;;19.80;45.60;;;;;;6197118;28;20038;-69
2022/03/30 01:49:39;;;;;;;3.78;1.92;;;19.80;45.60;;;;;;6197125;28;20046;-68
2022/03/30 01:52:39;;;;;;;4.13;2.03;;;19.80;45.70;;;;;;6197232;28;20054;-69
2022/03/30 01:55:41;;;;;;;3.10;1.92;;;19.80;45.80;;;;;;6197489;28;20030;-69
2022/03/30 01:58:44;;;;;;;2.75;1.60;;;19.80;45.80;;;;;;6197321;28;20385;-68
2022/03/30 02:01:45;;;;;;;3.38;2.15;;;19.80;45.80;;;;;;6196878;28;20031;-69
2022/03/30 02:04:45;;;;;;;2.80;1.52;;;19.80;45.80;;;;;;6196683;28;20027;-69
2022/03/30 02:07:46;;;;;;;2.80;1.83;;;19.80;45.80;;;;;;6196676;28;20036;-69
2022/03/30 02:10:47;;;;;;;2.05;1.38;;;19.80;45.80;;;;;;6196657;28;20027;-69
2022/03/30 02:13:47;;;;;;;2.95;1.80;;;19.80;45.80;;;;;;6196487;28;20651;-69
2022/03/30 02:16:48;;;;;;;2.63;1.65;;;19.80;45.80;;;;;;6196695;28;20046;-69
2022/03/30 02:19:49;;;;;;;2.75;1.58;;;19.80;45.80;;;;;;6196578;28;20030;-68
2022/03/30 02:22:49;;;;;;;2.28;1.50;;;19.80;45.80;;;;;;6197058;28;20073;-69
2022/03/30 02:25:50;;;;;;;2.88;1.70;;;19.80;45.80;;;;;;6196721;28;20037;-68
2022/03/30 02:28:54;;;;;;;1.75;1.48;;;19.80;45.80;;;;;;6195823;28;20513;-69
2022/03/30 02:31:55;;;;;;;2.50;1.50;;;19.80;45.80;;;;;;6196414;28;20437;-69
2022/03/30 02:34:56;;;;;;;2.60;1.58;;;19.80;45.70;;;;;;6196478;28;20466;-69
2022/03/30 02:37:58;;;;;;;2.30;1.52;;;19.80;45.70;;;;;;6196808;28;20041;-69
2022/03/30 02:40:59;;;;;;;2.97;1.90;;;19.80;45.80;;;;;;6195894;28;20203;-68
2022/03/30 02:43:59;;;;;;;2.53;1.58;;;19.80;45.80;;;;;;6196065;28;20022;-69
2022/03/30 02:47:01;;;;;;;3.47;2.13;;;19.80;45.80;;;;;;6195745;28;20096;-69
2022/03/30 02:50:01;;;;;;;1.77;1.20;;;19.80;45.90;;;;;;6195941;28;20061;-69
2022/03/30 02:53:02;;;;;;;2.13;1.50;;;19.80;45.80;;;;;;6195524;28;20060;-69
2022/03/30 02:56:04;;;;;;;1.98;1.50;;;19.80;45.80;;;;;;6196084;28;20104;-69
2022/03/30 02:59:04;;;;;;;1.92;1.38;;;19.80;45.80;;;;;;6195722;28;20041;-69
2022/03/30 03:02:05;;;;;;;2.08;1.33;;;19.80;45.80;;;;;;6195597;28;20022;-69
2022/03/30 03:05:06;;;;;;;2.83;1.60;;;19.80;45.80;;;;;;6195574;28;20100;-69
2022/03/30 03:08:07;;;;;;;2.17;1.52;;;19.80;45.80;;;;;;6195475;28;20088;-69
2022/03/30 03:11:09;;;;;;;2.55;1.48;;;19.80;45.80;;;;;;6195066;28;20474;-68
2022/03/30 03:14:10;;;;;;;2.05;1.35;;;19.80;45.80;;;;;;6195223;28;20083;-70
2022/03/30 03:17:11;;;;;;;3.30;1.60;;;19.80;45.80;;;;;;6195343;28;20031;-71
2022/03/30 03:20:11;;;;;;;2.17;1.20;;;19.80;45.80;;;;;;6195713;28;20482;-70
2022/03/30 03:23:14;;;;;;;2.20;1.38;;;19.80;45.80;;;;;;6194803;28;20081;-70
2022/03/30 03:26:14;;;;;;;2.95;1.60;;;19.80;45.80;;;;;;6194170;28;20422;-69
2022/03/30 03:29:15;;;;;;;2.63;1.38;;;19.80;45.80;;;;;;6194718;28;20030;-69
2022/03/30 03:32:15;;;;;;;2.63;1.40;;;19.80;45.80;;;;;;6194216;28;20070;-69
2022/03/30 03:35:16;;;;;;;2.33;1.40;;;19.80;45.80;;;;;;6194642;28;20052;-69
2022/03/30 03:38:16;;;;;;;2.15;1.40;;;19.80;45.90;;;;;;6195335;28;20023;-70
2022/03/30 03:41:17;;;;;;;1.63;1.20;;;19.80;45.80;;;;;;6194439;28;20521;-70
2022/03/30 03:44:17;;;;;;;1.95;1.40;;;19.80;45.80;;;;;;6194288;28;20366;-69
2022/03/30 03:47:18;;;;;;;2.58;1.50;;;19.80;45.80;;;;;;6194327;28;20401;-69
2022/03/30 03:50:19;;;;;;;2.50;1.38;;;19.80;45.80;;;;;;6194593;28;20030;-69
2022/03/30 03:53:19;;;;;;;2.90;1.40;;;19.80;45.80;;;;;;6194075;28;20037;-68
2022/03/30 03:56:20;;;;;;;2.15;1.48;;;19.80;45.80;;;;;;6194855;28;20085;-69
2022/03/30 03:59:21;;;;;;;2.78;1.38;;;19.80;45.80;;;;;;6194302;28;20026;-69
2022/03/30 04:02:21;;;;;;;2.45;1.35;;;19.80;45.80;;;;;;6194405;28;20030;-69
2022/03/30 04:05:22;;;;;;;2.05;1.30;;;19.80;45.80;;;;;;6192724;28;20030;-68
2022/03/30 04:08:22;;;;;;;3.83;1.48;;;19.80;45.80;;;;;;6194121;28;20061;-69
2022/03/30 04:11:23;;;;;;;1.88;1.15;;;19.80;45.80;;;;;;6194148;28;20023;-69
2022/03/30 04:14:24;;;;;;;1.58;1.20;;;19.80;45.80;;;;;;6194081;28;20033;-69
2022/03/30 04:17:24;;;;;;;2.47;1.25;;;19.80;45.80;;;;;;6194249;28;20029;-70
2022/03/30 04:20:25;;;;;;;1.98;1.17;;;19.80;45.80;;;;;;6194305;28;20097;-69
2022/03/30 04:23:25;;;;;;;1.88;1.15;;;19.80;45.80;;;;;;6193864;28;20022;-70
2022/03/30 04:26:26;;;;;;;2.00;1.30;;;19.80;45.80;;;;;;6193757;28;20568;-69
2022/03/30 04:29:26;;;;;;;2.15;0.88;;;19.80;45.70;;;;;;6193648;28;20026;-69
2022/03/30 04:32:27;;;;;;;1.48;0.98;;;19.80;45.70;;;;;;6193745;28;20105;-69
2022/03/30 04:35:27;;;;;;;1.77;1.00;;;19.80;45.70;;;;;;6193907;28;20069;-69
2022/03/30 04:38:28;;;;;;;3.22;1.35;;;19.80;45.80;;;;;;6194351;28;20057;-69
2022/03/30 04:41:28;;;;;;;2.42;1.67;;;19.80;45.70;;;;;;6194142;28;20101;-68
2022/03/30 04:44:29;;;;;;;1.70;1.10;;;19.80;45.70;;;;;;6198065;28;20042;-69
2022/03/30 04:47:32;;;;;;;1.80;1.27;;;19.80;45.60;;;;;;6198771;28;20068;-69
2022/03/30 04:50:32;;;;;;;1.88;1.35;;;19.80;45.70;;;;;;6198532;28;20030;-69
2022/03/30 04:53:34;;;;;;;2.40;1.33;;;19.80;45.70;;;;;;6198507;28;20524;-68
2022/03/30 04:56:34;;;;;;;1.95;1.40;;;19.80;45.60;;;;;;6198631;28;20029;-69
2022/03/30 05:03:32;;;;;;;4.00;1.00;;;19.80;45.60;;;;;;6176622;28;20034;-69
2022/03/30 05:06:32;;;;;;;2.88;1.15;;;19.80;45.60;;;;;;6173972;28;20194;-69
2022/03/30 05:09:33;;;;;;;2.25;1.10;;;19.80;45.60;;;;;;6174479;28;20031;-68
2022/03/30 05:12:33;;;;;;;5.25;1.25;;;19.80;45.60;;;;;;6173965;28;20034;-68
2022/03/30 05:15:34;;;;;;;1.67;1.13;;;19.80;45.70;;;;;;6174097;28;20022;-69
2022/03/30 05:18:34;;;;;;;2.33;1.20;;;19.80;45.70;;;;;;6173843;28;20026;-69
2022/03/30 05:21:35;;;;;;;2.63;1.30;;;19.80;45.60;;;;;;6173957;28;20039;-68
2022/03/30 05:24:36;;;;;;;2.60;1.25;;;19.80;45.70;;;;;;6175228;28;20069;-69
2022/03/30 05:27:39;;;;;;;2.25;1.15;;;19.80;45.70;;;;;;6197704;28;20050;-69
2022/03/30 05:30:40;;;;;;;4.88;1.00;;;19.80;45.60;;;;;;6197709;28;20026;-69
2022/03/30 05:33:41;;;;;;;3.50;1.20;;;19.80;45.70;;;;;;6197704;28;20030;-69
2022/03/30 05:36:41;;;;;;;1.40;1.15;;;19.80;45.60;;;;;;6197499;28;20026;-69
2022/03/30 05:39:42;;;;;;;1.90;1.02;;;19.80;45.60;;;;;;6197785;28;20039;-69
2022/03/30 05:42:43;;;;;;;3.92;1.60;;;19.80;45.60;;;;;;6197510;28;20026;-69
2022/03/30 05:45:43;;;;;;;1.73;1.20;;;19.80;45.60;;;;;;6197483;28;20026;-68
2022/03/30 05:48:44;;;;;;;3.30;0.93;;;19.80;45.60;;;;;;6183242;28;20256;-68
2022/03/30 05:51:45;;;;;;;5.28;1.60;;;19.80;45.60;;;;;;6196517;28;20050;-68
2022/03/30 05:54:46;;;;;;;2.15;1.35;;;19.80;45.60;;;;;;6198353;28;20022;-68
2022/03/30 05:57:47;;;;;;;3.17;1.10;;;19.80;45.60;;;;;;6196067;28;20030;-68
2022/03/30 06:00:48;;;;;;;1.40;1.08;;;19.80;45.60;;;;;;6192268;28;20070;-69
2022/03/30 06:03:48;;;;;;;2.97;1.27;;;19.80;45.60;;;;;;6195848;28;20030;-69
2022/03/30 06:06:52;;;;;;;2.20;1.38;;;19.80;45.60;;;;;;6197637;28;20037;-69
2022/03/30 06:09:52;;;;;;;2.22;1.10;;;19.80;45.60;;;;;;6198429;28;20037;-69
2022/03/30 06:12:56;;;;;;;4.18;1.00;;;19.80;45.60;;;;;;6197979;28;20031;-69
2022/03/30 06:15:57;;;;;;;6.10;1.25;;;19.80;45.60;;;;;;6197976;28;20094;-69
2022/03/30 06:18:57;;;;;;;1.95;0.93;;;19.80;45.60;;;;;;6197498;28;20078;-69
2022/03/30 06:21:58;;;;;;;2.55;1.08;;;19.80;45.60;;;;;;6198068;28;20497;-69
2022/03/30 06:24:59;;;;;;;1.98;1.27;;;19.80;45.60;;;;;;6197679;28;20027;-69
2022/03/30 06:28:00;;;;;;;3.17;1.13;;;19.80;45.60;;;;;;6197065;28;20513;-69
2022/03/30 06:31:01;;;;;;;1.40;1.00;;;19.80;45.60;;;;;;6197672;28;20165;-69
2022/03/30 06:34:02;;;;;;;1.60;1.10;;;19.80;45.60;;;;;;6197092;28;20382;-68
2022/03/30 06:37:05;;;;;;;2.55;1.17;;;19.80;45.60;;;;;;6197518;28;20046;-69
2022/03/30 06:40:06;;;;;;;2.55;1.00;;;19.80;45.60;;;;;;6197681;28;20018;-68
2022/03/30 06:43:06;;;;;;;3.30;1.00;;;19.80;45.70;;;;;;6196698;28;20022;-69
2022/03/30 06:46:08;;;;;;;2.95;1.08;;;19.80;45.70;;;;;;6197566;28;20555;-68
2022/03/30 06:49:10;;;;;;;2.22;1.10;;;19.80;45.70;;;;;;6196944;28;20038;-69
2022/03/30 06:52:10;;;;;;;3.28;1.20;;;19.80;45.60;;;;;;6199196;28;20121;-69
2022/03/30 06:55:12;;;;;;;3.85;1.17;;;19.80;45.70;;;;;;6197018;28;20030;-68
2022/03/30 06:58:13;;;;;;;4.55;1.00;;;19.80;45.60;;;;;;6197285;28;20026;-68
2022/03/30 07:01:16;;;;;;;2.42;0.93;;;19.80;45.60;;;;;;6197380;28;20528;-69
2022/03/30 07:04:16;;;;;;;2.05;1.17;;;19.80;45.60;;;;;;6197330;28;20065;-69
2022/03/30 07:10:36;;;;;;;1.80;0.98;;;19.80;45.60;;;;;;6196146;28;20338;-68
2022/03/30 07:13:37;;;;;;;4.35;1.20;;;19.80;45.60;;;;;;6196558;28;20325;-68
2022/03/30 07:16:38;;;;;;;4.78;1.08;;;19.80;45.60;;;;;;6196091;28;20022;-68
2022/03/30 07:19:40;;;;;;;2.42;1.30;;;19.80;45.60;;;;;;6208350;28;20053;-69
2022/03/30 07:22:41;;;;;;;3.85;1.00;;;19.80;45.60;;;;;;6215848;28;20030;-69
2022/03/30 07:25:42;;;;;;;2.20;1.00;;;19.80;45.60;;;;;;6200072;28;20100;-69
2022/03/30 07:28:42;;;;;;;2.88;0.95;;;19.80;45.60;;;;;;6195269;28;20517;-70
2022/03/30 07:31:43;;;;;;;1.63;1.10;;;19.80;45.60;;;;;;6181406;28;20050;-69
2022/03/30 07:34:44;;;;;;;2.35;1.20;;;19.80;45.60;;;;;;6215973;28;20045;-69
2022/03/30 07:37:45;;;;;;;2.50;1.00;;;19.80;45.60;;;;;;6213472;28;20434;-70
2022/03/30 07:40:48;;;;;;;2.63;1.00;;;19.80;45.60;;;;;;6196709;28;20026;-68
2022/03/30 07:43:48;;;;;;;3.10;1.23;;;19.80;46.30;;;;;;6195785;28;20061;-68
2022/03/30 07:46:49;;;;;;;4.50;1.10;;;19.80;45.60;;;;;;6193476;28;20030;-69
2022/03/30 07:49:50;;;;;;;2.08;0.68;;;19.80;45.70;;;;;;6190202;28;20508;-69
2022/03/30 07:52:51;;;;;;;3.22;1.25;;;19.80;45.60;;;;;;6195702;28;20062;-69
2022/03/30 07:55:51;;;;;;;3.70;1.30;;;19.80;45.70;;;;;;6195174;28;20088;-69
2022/03/30 07:58:53;;;;;;;2.13;1.13;;;19.80;45.70;;;;;;6195442;28;20033;-69
2022/03/30 08:01:54;;;;;;;2.90;1.15;;;19.80;45.70;;;;;;6195502;28;20026;-69
2022/03/30 08:04:55;;;;;;;1.90;1.08;;;19.80;45.70;;;;;;6195481;28;20112;-69
2022/03/30 08:07:55;;;;;;;1.98;1.00;;;19.80;45.70;;;;;;6194690;28;20062;-69
2022/03/30 08:10:56;;;;;;;1.67;0.93;;;19.80;45.70;;;;;;6193887;28;20022;-69
2022/03/30 08:13:57;;;;;;;1.42;1.08;;;19.80;45.70;;;;;;6195340;28;20061;-68
2022/03/30 08:16:57;;;;;;;2.50;0.90;;;19.80;45.70;;;;;;6194681;28;20035;-69
2022/03/30 08:19:59;;;;;;;1.58;0.95;;;19.80;45.80;;;;;;6195421;28;20026;-69
2022/03/30 08:23:00;;;;;;;3.90;1.15;;;19.80;45.80;;;;;;6194958;28;20425;-68
2022/03/30 08:26:01;;;;;;;2.15;0.73;;;19.80;45.70;;;;;;6195231;28;20042;-69
2022/03/30 08:29:03;;;;;;;1.70;0.98;;;19.80;45.70;;;;;;6194553;28;20054;-68
2022/03/30 08:32:03;;;;;;;6.38;1.10;;;19.80;45.70;;;;;;6194977;28;20242;-69
2022/03/30 08:35:07;;;;;;;3.03;1.00;;;19.80;45.70;;;;;;6195062;28;20058;-69
2022/03/30 08:38:07;;;;;;;4.00;1.30;;;19.80;45.70;;;;;;6195257;28;20066;-68
2022/03/30 08:41:09;;;;;;;5.22;1.20;;;19.80;45.70;;;;;;6194623;28;20033;-69
2022/03/30 08:44:12;;;;;;;4.78;1.42;;;19.80;45.70;;;;;;6194654;28;20107;-68
2022/03/30 08:47:13;;;;;;;1.80;0.90;;;19.80;45.70;;;;;;6194640;28;20528;-69
2022/03/30 08:50:14;;;;;;;2.17;0.90;;;19.80;45.70;;;;;;6195279;28;20065;-69
2022/03/30 08:53:15;;;;;;;2.08;0.93;;;19.80;45.70;;;;;;6194862;28;20521;-69
2022/03/30 08:56:17;;;;;;;3.83;1.00;;;19.80;45.70;;;;;;6195207;28;20085;-69
2022/03/30 08:59:22;;;;;;;1.65;1.00;;;19.80;45.80;;;;;;6195005;28;20026;-69
2022/03/30 09:02:23;;;;;;;2.88;0.90;;;19.80;45.80;;;;;;6194839;28;20063;-69
2022/03/30 09:05:25;;;;;;;1.67;0.90;;;19.90;45.80;;;;;;6194491;28;20426;-68
2022/03/30 09:08:27;;;;;;;1.35;0.98;;;19.80;45.80;;;;;;6194754;28;20080;-69
2022/03/30 09:11:30;;;;;;;2.80;1.08;;;19.80;45.70;;;;;;6195076;28;20026;-68
2022/03/30 09:14:32;;;;;;;1.10;0.90;;;19.80;45.80;;;;;;6193178;28;20033;-68
2022/03/30 09:17:37;;;;;;;2.05;0.98;;;19.80;45.70;;;;;;6187106;28;20400;-69
2022/03/30 09:20:39;;;;;;;1.58;0.77;;;19.80;45.70;;;;;;6194053;28;20060;-69
2022/03/30 09:23:46;;;;;;;2.25;0.80;;;19.80;45.70;;;;;;6193545;28;20493;-69
2022/03/30 09:26:48;;;;;;;1.48;1.00;;;19.90;45.90;;;;;;6192877;28;20068;-69
2022/03/30 09:29:49;;;;;;;1.65;0.65;;;19.80;45.80;;;;;;6195706;28;20127;-68
2022/03/30 09:32:52;;;;;;;1.50;0.70;;;19.80;45.80;;;;;;6199485;28;20058;-69
2022/03/30 09:35:53;;;;;;;1.88;0.82;;;19.80;45.90;;;;;;6198469;28;20030;-69
2022/03/30 09:38:53;;;;;;;1.55;0.90;;;19.80;45.90;;;;;;6198557;28;20098;-68
2022/03/30 09:41:56;;;;;;;3.92;0.90;;;19.80;45.90;;;;;;6197536;28;20030;-69
2022/03/30 09:44:56;;;;;;;0.88;0.68;;;19.80;45.90;;;;;;6198295;28;20033;-70
2022/03/30 09:48:10;;;;;;;1.45;1.08;;;19.80;46.00;;;;;;6198390;28;20034;-69
2022/03/30 09:51:11;;;;;;;1.70;0.85;;;19.80;46.00;;;;;;6198088;28;20478;-69
2022/03/30 09:54:11;;;;;;;1.60;0.93;;;19.80;46.00;;;;;;6197964;28;20090;-68
2022/03/30 09:57:15;;;;;;;1.50;0.80;;;19.80;46.00;;;;;;6198252;28;20031;-69
2022/03/30 10:00:18;;;;;;;1.52;0.70;;;19.80;46.00;;;;;;6197701;28;20374;-69
2022/03/30 10:03:18;;;;;;;4.47;0.90;;;19.80;46.00;;;;;;6198157;28;20022;-69
2022/03/30 10:06:21;;;;;;;1.45;1.00;;;19.80;46.00;;;;;;6198633;28;20666;-69
2022/03/30 10:09:22;;;;;;;1.67;0.90;;;19.80;46.70;;;;;;6197922;28;20077;-68
2022/03/30 10:12:25;;;;;;;2.13;1.20;;;19.80;46.00;;;;;;6197242;28;20026;-68
2022/03/30 10:15:26;;;;;;;1.48;1.02;;;19.80;46.00;;;;;;6197610;28;20521;-69
2022/03/30 10:18:29;;;;;;;1.80;0.90;;;19.80;46.00;;;;;;6197562;28;20026;-70
2022/03/30 10:22:24;;;;;;;1.42;0.80;;;19.80;46.00;;;;;;6197843;28;20097;-69
2022/03/30 10:25:58;;;;;;;1.73;0.95;;;19.80;46.00;;;;;;6194597;28;20026;-69
2022/03/30 10:29:05;;;;;;;1.63;0.70;;;19.80;46.00;;;;;;6197147;28;20049;-68
2022/03/30 10:32:18;;;;;;;2.30;0.68;;;19.80;46.10;;;;;;6196796;28;20389;-69
2022/03/30 10:35:20;;;;;;;1.92;0.80;;;19.80;46.00;;;;;;6197524;28;20034;-69
2022/03/30 10:38:20;;;;;;;2.05;0.80;;;19.80;46.00;;;;;;6197248;28;20600;-69
2022/03/30 10:41:21;;;;;;;1.77;1.00;;;19.80;46.10;;;;;;6196676;28;20031;-69
2022/03/30 10:44:41;;;;;;;3.10;0.85;;;19.80;46.10;;;;;;6197363;28;20034;-69
2022/03/30 10:48:20;;;;;;;1.60;0.90;;;19.80;46.10;;;;;;6196816;28;20083;-69
2022/03/30 10:51:20;;;;;;;1.15;0.70;;;19.80;46.00;;;;;;6196890;28;20041;-69
2022/03/30 10:54:30;;;;;;;1.20;0.60;;;19.80;46.00;;;;;;6196970;28;20097;-69
2022/03/30 10:57:43;;;;;;;1.83;0.75;;;19.80;46.80;;;;;;6196670;28;20030;-69
2022/03/30 11:00:44;;;;;;;1.17;0.77;;;19.80;46.10;;;;;;6197345;28;20029;-69
2022/03/30 11:04:02;;;;;;;2.75;1.45;;;19.80;46.10;;;;;;6197167;28;20065;-68
2022/03/30 11:07:26;;;;;;;1.45;0.70;;;19.80;46.00;;;;;;6197273;28;20022;-68
2022/03/30 11:10:29;;;;;;;1.55;0.57;;;19.80;46.00;;;;;;6197500;28;20022;-68
2022/03/30 11:13:30;;;;;;;0.93;0.70;;;19.80;46.10;;;;;;6197707;28;20169;-68
2022/03/30 11:16:48;;;;;;;1.27;0.65;;;19.80;46.00;;;;;;6197483;28;20420;-68
2022/03/30 11:19:55;;;;;;;1.60;0.75;;;19.80;46.00;;;;;;6197469;28;20084;-68
2022/03/30 11:23:19;;;;;;;1.55;0.70;;;19.90;46.20;;;;;;6198478;28;20106;-68
2022/03/30 11:26:19;;;;;;;1.42;0.82;;;19.80;46.00;;;;;;6197607;28;20587;-69
2022/03/30 11:29:52;;;;;;;1.05;0.73;;;19.80;46.00;;;;;;6197319;28;20018;-68
2022/03/30 11:33:19;;;;;;;1.75;0.88;;;19.90;46.10;;;;;;6198203;28;20031;-69
2022/03/30 11:36:20;;;;;;;2.05;0.80;;;19.80;46.10;;;;;;6197871;28;20512;-68
2022/03/30 11:39:31;;;;;;;1.02;0.60;;;19.80;46.10;;;;;;6197810;28;20026;-68
2022/03/30 11:42:31;;;;;;;1.25;0.75;;;19.80;46.10;;;;;;6175441;28;20100;-69
2022/03/30 11:45:34;;;;;;;0.70;0.50;;;19.80;46.10;;;;;;6199548;28;20030;-68
2022/03/30 11:48:36;;;;;;;1.98;0.95;;;19.80;46.10;;;;;;6186547;28;20425;-68
2022/03/30 11:51:37;;;;;;;1.20;0.70;;;19.80;47.00;;;;;;6197854;28;20026;-68
2022/03/30 11:54:46;;;;;;;1.25;0.70;;;19.90;46.20;;;;;;6196962;28;20026;-69
2022/03/30 11:57:50;;;;;;;3.90;0.85;;;20.00;46.10;;;;;;6196999;28;20034;-68
2022/03/30 12:00:52;;;;;;;3.25;1.08;;;20.00;46.00;;;;;;6195898;28;20029;-68
2022/03/30 12:03:55;;;;;;;1.42;0.80;;;20.00;45.60;;;;;;6197009;28;20367;-69
2022/03/30 12:06:55;;;;;;;1.52;0.65;;;20.10;45.50;;;;;;6196754;28;20117;-68
2022/03/30 12:09:57;;;;;;;0.47;0.40;;;20.10;45.40;;;;;;6203049;28;20034;-68
2022/03/30 12:12:59;;;;;;;0.95;0.70;;;20.10;45.40;;;;;;6196984;28;20026;-68
2022/03/30 12:16:07;;;;;;;1.92;0.70;;;20.10;45.30;;;;;;6197906;28;20115;-69
2022/03/30 12:19:08;;;;;;;1.42;0.60;;;20.10;45.50;;;;;;6197149;28;20073;-68
2022/03/30 12:22:09;;;;;;;1.08;0.55;;;20.10;45.60;;;;;;6202473;28;20515;-68
2022/03/30 12:25:16;;;;;;;2.75;0.70;;;20.10;45.60;;;;;;6195749;28;20022;-68
2022/03/30 12:28:28;;;;;;;1.00;0.57;;;20.10;45.60;;;;;;6195736;28;20081;-68
2022/03/30 12:31:36;;;;;;;5.13;1.20;;;20.10;45.70;;;;;;6196272;28;20030;-68
2022/03/30 12:34:39;;;;;;;4.22;2.03;;;20.10;46.00;;;;;;6196617;28;20037;-70
2022/03/30 12:37:43;;;;;;;5.47;4.00;;;20.10;46.10;;;;;;6195860;28;20147;-68
2022/03/30 12:40:45;;;;;;;6.68;4.85;;;20.10;46.30;;;;;;6197828;28;20109;-68
2022/03/30 12:43:56;;;;;;;4.75;4.25;;;20.10;46.40;;;;;;6196112;28;20033;-68
2022/03/30 12:46:58;;;;;;;7.10;4.35;;;20.10;46.40;;;;;;6195909;28;20057;-68
2022/03/30 12:50:03;;;;;;;4.55;3.50;;;20.10;46.40;;;;;;6195893;28;20386;-69
2022/03/30 12:53:15;;;;;;;5.13;3.70;;;20.10;46.40;;;;;;6195645;28;20105;-68
2022/03/30 12:56:18;;;;;;;4.57;3.00;;;20.10;46.30;;;;;;6195008;28;20129;-69
2022/03/30 12:59:19;;;;;;;4.30;2.92;;;20.10;46.20;;;;;;6196156;28;20030;-68
2022/03/30 13:02:24;;;;;;;3.88;2.78;;;20.10;46.20;;;;;;6195925;28;20100;-68
2022/03/30 13:05:25;;;;;;;3.22;2.50;;;20.10;46.10;;;;;;6200330;28;20023;-68
2022/03/30 13:08:25;;;;;;;2.85;2.30;;;20.10;46.20;;;;;;6200906;28;20052;-68
2022/03/30 13:11:26;;;;;;;2.80;2.20;;;20.10;46.10;;;;;;6200624;28;20054;-67
2022/03/30 13:14:29;;;;;;;3.55;1.80;;;20.10;46.10;;;;;;6200673;28;20061;-68
2022/03/30 13:17:30;;;;;;;4.28;2.03;;;20.10;46.10;;;;;;6200023;28;20026;-68
2022/03/30 13:20:36;;;;;;;3.03;1.75;;;20.10;46.10;;;;;;6199524;28;20085;-68
2022/03/30 13:23:48;;;;;;;3.10;1.92;;;20.10;46.00;;;;;;6199682;28;20033;-68
2022/03/30 13:27:03;;;;;;;1.70;1.58;;;20.10;46.10;;;;;;6198904;28;20053;-68
2022/03/30 13:30:04;;;;;;;;;;;20.10;46.00;;;;;;6200643;28;20056;-68
2022/03/30 13:33:05;;;;;;;4.13;1.73;;;20.10;45.50;;;;;;6218933;28;19905;-68
2022/03/30 13:36:05;;;;;;;3.65;1.77;;;20.10;45.40;;;;;;6201938;28;20038;-68
2022/03/30 13:39:07;;;;;;;2.83;1.45;;;20.10;45.60;;;;;;6183869;28;20046;-68
2022/03/30 13:42:08;;;;;;;4.25;1.58;;;20.10;45.60;;;;;;6199703;28;20069;-68
2022/03/30 13:45:09;;;;;;;3.05;1.70;;;20.10;45.90;;;;;;6200114;28;20030;-68
2022/03/30 13:48:09;;;;;;;8.18;2.17;;;20.10;45.90;;;;;;6183549;28;20045;-67
2022/03/30 13:51:10;;;;;;;2.20;1.55;;;20.10;45.80;;;;;;6223880;28;20468;-68
2022/03/30 13:54:11;;;;;;;2.65;1.58;;;20.10;45.80;;;;;;6202439;28;20038;-68
2022/03/30 13:57:11;;;;;;;2.30;1.50;;;20.10;45.70;;;;;;6198393;28;20401;-68
2022/03/30 14:00:12;;;;;;;2.58;1.33;;;20.10;45.70;;;;;;6199639;28;20057;-68
2022/03/30 14:03:13;;;;;;;2.90;1.77;;;20.10;45.80;;;;;;6223234;28;20033;-68
2022/03/30 14:06:14;;;;;;;3.50;1.92;;;20.10;45.70;;;;;;6223901;28;20030;-68
2022/03/30 14:09:14;;;;;;;1.42;1.20;;;20.10;45.60;;;;;;6204002;28;20030;-68
2022/03/30 14:12:15;;;;;;;1.67;1.30;;;20.10;45.60;;;;;;6199404;28;20520;-68
2022/03/30 14:15:17;;;;;;;1.70;1.23;;;20.10;45.50;;;;;;6198940;28;20047;-68
2022/03/30 14:18:17;;;;;;;3.00;1.70;;;20.10;45.50;;;;;;6199308;28;20035;-68
2022/03/30 14:21:18;;;;;;;4.00;1.60;;;20.10;45.10;;;;;;6211977;28;20028;-68
2022/03/30 14:24:19;;;;;;;3.63;1.63;;;20.10;45.10;;;;;;6223255;28;20066;-68
2022/03/30 14:27:21;;;;;;;3.70;1.27;;;20.10;43.30;;;;;;6222868;28;20428;-68
2022/03/30 14:30:22;;;;;;;7.70;1.90;;;20.10;42.30;;;;;;6208158;28;20034;-68
2022/03/30 14:33:22;;;;;;;4.47;1.50;;;20.00;40.50;;;;;;6198626;28;20389;-68
2022/03/30 14:36:23;;;;;;;4.22;1.60;;;20.00;40.60;;;;;;6198640;28;20033;-67
2022/03/30 14:39:23;;;;;;;7.47;2.10;;;20.00;40.30;;;;;;6198709;28;20478;-68
2022/03/30 14:42:24;;;;;;;7.78;1.80;;;20.00;40.30;;;;;;6198113;28;20113;-68
2022/03/30 14:45:25;;;;;;;6.93;2.13;;;20.00;39.90;;;;;;6198122;28;20105;-68
2022/03/30 14:48:28;;;;;;;3.53;1.45;;;20.00;40.70;;;;;;6198455;28;20034;-68
2022/03/30 14:51:28;;;;;;;4.40;1.65;;;19.90;40.20;;;;;;6198129;28;20338;-68
2022/03/30 14:54:29;;;;;;;8.70;1.75;;;19.90;41.20;;;;;;6221756;28;20037;-68
2022/03/30 14:57:30;;;;;;;3.58;1.40;;;19.90;41.30;;;;;;6222939;28;20432;-68
2022/03/30 15:00:30;;;;;;;6.05;1.60;;;19.90;40.30;;;;;;6213888;28;20022;-68
2022/03/30 15:03:30;;;;;;;6.53;1.67;;;19.90;40.60;;;;;;6197723;28;20073;-68
2022/03/30 15:06:31;;;;;;;6.70;1.40;;;19.90;40.40;;;;;;6197834;28;20030;-68
2022/03/30 15:09:32;;;;;;;4.65;1.45;;;19.80;40.80;;;;;;6198615;28;20037;-68
2022/03/30 15:12:33;;;;;;;6.55;1.60;;;19.80;41.00;;;;;;6197800;28;20030;-68
2022/03/30 15:15:34;;;;;;;5.85;1.58;;;19.80;40.80;;;;;;6198515;28;20030;-68
2022/03/30 15:18:35;;;;;;;4.78;1.58;;;19.80;40.90;;;;;;6196483;28;20062;-68
2022/03/30 15:21:36;;;;;;;5.70;1.67;;;19.70;40.80;;;;;;6214365;28;20433;-68
2022/03/30 15:24:37;;;;;;;8.20;1.80;;;19.80;39.70;;;;;;6199139;28;20117;-68
2022/03/30 15:27:37;;;;;;;5.75;1.50;;;19.80;39.40;;;;;;6195242;28;20046;-68
2022/03/30 15:30:39;;;;;;;9.30;1.60;;;19.80;38.70;;;;;;6197199;28;20050;-68
2022/03/30 15:33:40;;;;;;;7.60;1.40;;;19.80;38.70;;;;;;6195859;28;20058;-68
2022/03/30 15:36:41;;;;;;;9.07;1.20;;;19.80;39.80;;;;;;6197335;28;20033;-69
2022/03/30 15:39:41;;;;;;;5.95;1.33;;;19.80;40.30;;;;;;6197544;28;20023;-68
2022/03/30 15:42:42;;;;;;;3.83;1.20;;;19.80;40.10;;;;;;6196363;28;20482;-68
2022/03/30 15:45:43;;;;;;;8.48;1.85;;;19.70;39.80;;;;;;6197766;28;20165;-68
2022/03/30 15:48:43;;;;;;;6.28;1.10;;;19.70;39.80;;;;;;6196240;28;20030;-67
2022/03/30 15:51:44;;;;;;;4.32;1.40;;;19.70;39.70;;;;;;6198259;28;20026;-68
2022/03/30 15:54:48;;;;;;;5.00;1.30;;;19.70;39.20;;;;;;6221056;28;20053;-68
2022/03/30 15:57:50;;;;;;;3.75;1.15;;;19.70;38.70;;;;;;6197167;28;20034;-68
2022/03/30 16:00:50;;;;;;;4.00;1.15;;;19.70;38.60;;;;;;6197015;28;20031;-68